C Tractor 11 — WCO3211 — position and weather

sailwx.info

Track history (hours):
 
Tides and Currents Weather Stations Pressure Air Temp Water Temp Dewpoint Dewpoint Depression Visibility Wind Speed Wind Dir Waves Ship Positions

C Tractor 11

Owner: ALPHA MARINE SERVICES,LLC, Cut Off, LA. More information available from US FCC via Universal Licensing System and Coast Guard Vessel Documentation Center.

Last reported at 2017-Sep-21 20:29 UTC. Time now 2017-Sep-21 23:14 UTC.
Position N 32°43' W 117°12'.

Length 27 m; draft 5.1 m.

Type: Tug. MMSI: 366981910.

Date/timePositionNaut miles runAvg speedWind from/ knotsBaromVisibWave heightAir tempDewpointWater temp
2017-Sep-21 20:29N 32°43' W 117°12'2 4.7
2017-Sep-21 20:00N 32°42' W 117°14'  
2017-Sep-19 13:26N 32°41' W 117°08'0 0.0
2017-Sep-19 12:56N 32°41' W 117°08'0 0.0
2017-Sep-19 12:28N 32°41' W 117°08'0 0.0
2017-Sep-19 11:59N 32°41' W 117°08'5 0.4
2017-Sep-19 00:12N 32°43' W 117°13'2 7.7
2017-Sep-18 23:59N 32°41' W 117°14'0 0.2
2017-Sep-18 23:31N 32°41' W 117°14'1 0.9
2017-Sep-18 22:57N 32°42' W 117°14'0 0.1
2017-Sep-18 22:30N 32°42' W 117°14'0 0.1
2017-Sep-18 21:56N 32°42' W 117°14'0 0.9
2017-Sep-18 21:30N 32°42' W 117°14'0 0.0
2017-Sep-18 21:00N 32°42' W 117°14'0 0.0
2017-Sep-18 20:30N 32°42' W 117°14'0 0.8
2017-Sep-18 19:55N 32°42' W 117°14'1 2.8
2017-Sep-18 19:30N 32°43' W 117°13'  
2017-Sep-16 00:06N 32°42' W 117°11'1 1.5
2017-Sep-15 23:38N 32°43' W 117°11'1 5.3
2017-Sep-15 23:23N 32°43' W 117°13'1 3.5
2017-Sep-15 23:00N 32°42' W 117°14'1 2.7
2017-Sep-15 22:30N 32°43' W 117°13'  
2017-Sep-13 18:10N 32°43' W 117°11'1 8.9
2017-Sep-13 18:00N 32°43' W 117°13'0 0.2
2017-Sep-13 17:30N 32°43' W 117°13'5 0.2
2017-Sep-12 19:12N 32°41' W 117°08'0 0.0
2017-Sep-12 08:08N 32°41' W 117°08'0 0.0
2017-Sep-12 07:44N 32°41' W 117°08'0 0.0
2017-Sep-12 07:22N 32°41' W 117°08'0 0.0
2017-Sep-12 06:36N 32°41' W 117°08'0 0.0
2017-Sep-12 06:29N 32°41' W 117°08'0 0.0
2017-Sep-12 05:48N 32°41' W 117°08'0 0.0
2017-Sep-12 05:29N 32°41' W 117°08'0 0.0
2017-Sep-12 05:00N 32°41' W 117°08'  
Track history (hours):
 
Tides and Currents Weather Stations Pressure Air Temp Water Temp Dewpoint Dewpoint Depression Visibility Wind Speed Wind Dir Waves Ship Positions

C Tractor 11

Owner: ALPHA MARINE SERVICES,LLC, Cut Off, LA. More information available from US FCC via Universal Licensing System and Coast Guard Vessel Documentation Center.

Last reported at 2017-Sep-21 20:29 UTC. Time now 2017-Sep-21 23:14 UTC.
Position N 32°43' W 117°12'.

Length 27 m; draft 5.1 m.

Type: Tug. MMSI: 366981910.

Date/timePositionNaut miles runAvg speedWind from/ knotsBaromVisibWave heightAir tempDewpointWater temp
2017-Sep-21 20:29N 32°43' W 117°12'2 4.7
2017-Sep-21 20:00N 32°42' W 117°14'  
2017-Sep-19 13:26N 32°41' W 117°08'0 0.0
2017-Sep-19 12:56N 32°41' W 117°08'0 0.0
2017-Sep-19 12:28N 32°41' W 117°08'0 0.0
2017-Sep-19 11:59N 32°41' W 117°08'5 0.4
2017-Sep-19 00:12N 32°43' W 117°13'2 7.7
2017-Sep-18 23:59N 32°41' W 117°14'0 0.2
2017-Sep-18 23:31N 32°41' W 117°14'1 0.9
2017-Sep-18 22:57N 32°42' W 117°14'0 0.1
2017-Sep-18 22:30N 32°42' W 117°14'0 0.1
2017-Sep-18 21:56N 32°42' W 117°14'0 0.9
2017-Sep-18 21:30N 32°42' W 117°14'0 0.0
2017-Sep-18 21:00N 32°42' W 117°14'0 0.0
2017-Sep-18 20:30N 32°42' W 117°14'0 0.8
2017-Sep-18 19:55N 32°42' W 117°14'1 2.8
2017-Sep-18 19:30N 32°43' W 117°13'  
2017-Sep-16 00:06N 32°42' W 117°11'1 1.5
2017-Sep-15 23:38N 32°43' W 117°11'1 5.3
2017-Sep-15 23:23N 32°43' W 117°13'1 3.5
2017-Sep-15 23:00N 32°42' W 117°14'1 2.7
2017-Sep-15 22:30N 32°43' W 117°13'  
2017-Sep-13 18:10N 32°43' W 117°11'1 8.9
2017-Sep-13 18:00N 32°43' W 117°13'0 0.2
2017-Sep-13 17:30N 32°43' W 117°13'5 0.2
2017-Sep-12 19:12N 32°41' W 117°08'0 0.0
2017-Sep-12 08:08N 32°41' W 117°08'0 0.0
2017-Sep-12 07:44N 32°41' W 117°08'0 0.0
2017-Sep-12 07:22N 32°41' W 117°08'0 0.0
2017-Sep-12 06:36N 32°41' W 117°08'0 0.0
2017-Sep-12 06:29N 32°41' W 117°08'0 0.0
2017-Sep-12 05:48N 32°41' W 117°08'0 0.0
2017-Sep-12 05:29N 32°41' W 117°08'0 0.0
2017-Sep-12 05:00N 32°41' W 117°08'  

Dump ship's entire track history